createdAt,value
2022-12-26T00:00:36.940Z,7
2022-12-26T00:02:34.284Z,7.1
2022-12-26T00:04:48.479Z,7.2
2022-12-26T00:06:34.081Z,7.2
2022-12-26T00:08:35.364Z,7.3
2022-12-26T00:10:35.429Z,7.3
2022-12-26T00:12:34.547Z,7.3
2022-12-26T00:14:34.088Z,7.3
2022-12-26T00:18:34.522Z,7.2
2022-12-26T00:20:34.546Z,7.2
2022-12-26T00:22:34.106Z,7.2
2022-12-26T00:24:34.801Z,7.3
2022-12-26T00:26:34.909Z,7.3
2022-12-26T00:28:34.094Z,7.3
2022-12-26T00:30:34.081Z,7.3
2022-12-26T00:32:34.134Z,7.3
2022-12-26T00:34:34.238Z,7.3
2022-12-26T00:36:34.210Z,7.2
2022-12-26T00:38:34.304Z,7.4
2022-12-26T00:40:34.163Z,7.4
2022-12-26T00:42:38.989Z,7.4
2022-12-26T00:44:34.098Z,7.4
2022-12-26T00:46:34.177Z,7.2
2022-12-26T00:50:34.917Z,7.3
2022-12-26T00:52:34.095Z,7.3
2022-12-26T00:54:34.076Z,7.4
2022-12-26T00:56:35.412Z,7.4
2022-12-26T00:58:36.926Z,7.5
2022-12-26T01:02:34.194Z,7.5
2022-12-26T01:04:34.079Z,7.6
2022-12-26T01:06:34.779Z,7.5
2022-12-26T01:08:34.570Z,7.6
2022-12-26T01:10:40.560Z,7.5
2022-12-26T01:12:34.605Z,7.6
2022-12-26T01:14:34.120Z,7.6
2022-12-26T01:16:34.143Z,7.6
2022-12-26T01:18:34.093Z,7.5
2022-12-26T01:20:34.113Z,7.5
2022-12-26T01:22:34.087Z,7.7
2022-12-26T01:24:34.945Z,7.7
2022-12-26T01:26:34.092Z,7.7
2022-12-26T01:28:34.104Z,7.6
2022-12-26T01:32:34.831Z,7.6
2022-12-26T01:34:34.102Z,7.6
2022-12-26T01:36:34.825Z,7.6
2022-12-26T01:40:34.086Z,7.6
2022-12-26T01:42:37.326Z,7.5
2022-12-26T01:44:34.826Z,7.4
2022-12-26T01:46:37.475Z,7.4
2022-12-26T01:48:36.911Z,7.3
2022-12-26T01:50:34.605Z,7.4
2022-12-26T01:52:35.392Z,7.3
2022-12-26T01:54:38.843Z,7.3
2022-12-26T01:56:34.106Z,7.3
2022-12-26T01:58:34.094Z,7.2
2022-12-26T02:00:34.090Z,7.1
2022-12-26T02:02:34.838Z,7
2022-12-26T02:04:40.214Z,7.1
2022-12-26T02:06:34.094Z,7
2022-12-26T02:12:38.306Z,7.1
2022-12-26T02:14:34.092Z,7.1
2022-12-26T02:16:34.888Z,7.2
2022-12-26T02:18:40.586Z,7.2
2022-12-26T02:20:34.111Z,7.3
2022-12-26T02:22:36.994Z,7.3
2022-12-26T02:24:34.097Z,7.3
2022-12-26T02:26:37.651Z,7.4
2022-12-26T02:28:34.575Z,7.3
2022-12-26T02:30:34.562Z,7.3
2022-12-26T02:32:34.133Z,7.4
2022-12-26T02:34:37.418Z,7.2
2022-12-26T02:36:34.096Z,7.3
2022-12-26T02:40:34.556Z,7.5
2022-12-26T02:42:36.675Z,7.3
2022-12-26T02:44:34.126Z,7.2
2022-12-26T02:46:34.331Z,7.2
2022-12-26T02:48:34.096Z,7.1
2022-12-26T02:50:34.134Z,7
2022-12-26T02:52:35.555Z,7.1
2022-12-26T02:54:34.831Z,7.5
2022-12-26T02:56:37.109Z,7.3
2022-12-26T02:58:37.016Z,7.2
2022-12-26T03:00:34.097Z,7.2
2022-12-26T03:02:34.212Z,7.2
2022-12-26T03:04:36.865Z,7.2
2022-12-26T03:06:34.757Z,7.1
2022-12-26T03:08:37.315Z,7.2
2022-12-26T03:10:37.045Z,7.1
2022-12-26T03:12:34.091Z,7.1
2022-12-26T03:14:34.128Z,7.1
2022-12-26T03:16:34.624Z,7
2022-12-26T03:18:57.288Z,7
2022-12-26T03:20:34.122Z,6.9
2022-12-26T03:22:34.130Z,6.8
2022-12-26T03:24:34.099Z,6.7
2022-12-26T03:26:34.249Z,6.9
2022-12-26T03:28:34.096Z,6.7
2022-12-26T03:30:34.405Z,6.7
2022-12-26T03:32:34.101Z,6.7
2022-12-26T03:34:34.112Z,6.7
2022-12-26T03:36:34.135Z,6.7
2022-12-26T03:38:37.352Z,6.8
2022-12-26T03:40:34.096Z,6.9
2022-12-26T03:42:34.107Z,6.9
2022-12-26T03:46:34.146Z,6.9
2022-12-26T03:48:34.119Z,6.8
2022-12-26T03:50:35.387Z,6.8
2022-12-26T03:52:34.129Z,6.7
2022-12-26T03:54:34.112Z,6.7
2022-12-26T03:56:34.458Z,6.6
2022-12-26T03:58:34.140Z,6.5
2022-12-26T04:00:38.981Z,6.6
2022-12-26T04:02:37.488Z,6.6
2022-12-26T04:04:36.978Z,6.6
2022-12-26T04:06:34.155Z,6.7
2022-12-26T04:08:34.144Z,6.8
2022-12-26T04:10:34.825Z,6.9
2022-12-26T04:12:34.125Z,7
2022-12-26T04:14:34.113Z,7.2
2022-12-26T04:16:34.117Z,7.1
2022-12-26T04:18:34.135Z,7.2
2022-12-26T04:20:34.102Z,7.1
2022-12-26T04:22:34.101Z,7.1
2022-12-26T04:24:37.099Z,7.1
2022-12-26T04:26:34.115Z,7.1
2022-12-26T04:28:34.515Z,7.1
2022-12-26T04:30:34.156Z,7.2
2022-12-26T04:32:36.943Z,7.3
2022-12-26T04:36:36.928Z,7.3
2022-12-26T04:38:34.564Z,7.3
2022-12-26T04:40:34.114Z,7.3
2022-12-26T04:44:34.101Z,7.3
2022-12-26T04:46:34.918Z,7.3
2022-12-26T04:48:34.111Z,7.3
2022-12-26T04:50:37.392Z,7.3
2022-12-26T04:52:34.118Z,7.4
2022-12-26T04:54:37.256Z,7.4
2022-12-26T04:56:34.109Z,7.4
2022-12-26T04:58:37.805Z,7.5
2022-12-26T05:00:34.114Z,7.5
2022-12-26T05:02:34.159Z,7.5
2022-12-26T05:04:34.132Z,7.5
2022-12-26T05:06:36.738Z,7.5
2022-12-26T05:08:34.111Z,7.4
2022-12-26T05:10:34.875Z,7.3
2022-12-26T05:14:34.154Z,7.3
2022-12-26T05:16:34.121Z,7.2
2022-12-26T05:18:34.888Z,7.2
2022-12-26T05:20:40.912Z,7.2
2022-12-26T05:22:34.143Z,7.3
2022-12-26T05:24:34.211Z,7.2
2022-12-26T05:26:34.112Z,7.3
2022-12-26T05:28:34.138Z,7.4
2022-12-26T05:32:34.584Z,7.4
2022-12-26T05:34:39.895Z,7.3
2022-12-26T05:36:36.942Z,7.3
2022-12-26T05:38:36.956Z,7.3
2022-12-26T05:40:35.395Z,7.4
2022-12-26T05:42:34.150Z,7.4
2022-12-26T05:44:34.412Z,7.4
2022-12-26T05:46:34.202Z,7.5
2022-12-26T05:48:38.214Z,7.5
2022-12-26T05:50:34.149Z,7.5
2022-12-26T05:52:34.137Z,7.5
2022-12-26T05:54:34.249Z,7.6
2022-12-26T05:56:34.148Z,7.5
2022-12-26T05:58:36.721Z,7.5
2022-12-26T06:00:37.397Z,7.5
2022-12-26T06:02:37.807Z,7.5
2022-12-26T06:04:35.423Z,7.5
2022-12-26T06:06:34.247Z,7.5
2022-12-26T06:08:34.479Z,7.6
2022-12-26T06:10:34.113Z,7.6
2022-12-26T06:12:36.956Z,7.6
2022-12-26T06:14:34.123Z,7.5
2022-12-26T06:16:37.256Z,7.4
2022-12-26T06:18:37.468Z,7.4
2022-12-26T06:20:36.246Z,7.4
2022-12-26T06:24:34.145Z,7.3
2022-12-26T06:26:34.168Z,7.2
2022-12-26T06:28:34.264Z,7.2
2022-12-26T06:30:36.740Z,7.2
2022-12-26T06:34:34.117Z,7.1
2022-12-26T06:36:34.128Z,7.3
2022-12-26T06:40:40.396Z,7.2
2022-12-26T06:42:34.129Z,7
2022-12-26T06:44:34.148Z,6.9
2022-12-26T06:46:34.255Z,7
2022-12-26T06:48:36.746Z,7.1
2022-12-26T06:50:40.172Z,7.2
2022-12-26T06:52:35.436Z,7.4
2022-12-26T06:54:34.119Z,7.4
2022-12-26T06:56:37.389Z,7.4
2022-12-26T06:58:34.583Z,7.4
2022-12-26T07:00:36.985Z,7.6
2022-12-26T07:02:34.309Z,7.7
2022-12-26T07:04:36.990Z,7.8
2022-12-26T07:06:34.618Z,7.7
2022-12-26T07:08:34.582Z,7.8
2022-12-26T07:10:34.836Z,7.8
2022-12-26T07:12:34.150Z,7.8
2022-12-26T07:14:39.043Z,7.8
2022-12-26T07:16:34.178Z,7.8
2022-12-26T07:18:34.621Z,7.8
2022-12-26T07:20:36.705Z,7.9
2022-12-26T07:22:34.516Z,7.9
2022-12-26T07:24:36.980Z,7.9
2022-12-26T07:26:36.729Z,8
2022-12-26T07:30:35.410Z,8
2022-12-26T07:32:40.963Z,8.1
2022-12-26T07:36:34.603Z,8
2022-12-26T07:38:34.170Z,8.1
2022-12-26T07:40:37.386Z,8.1
2022-12-26T07:42:34.252Z,8.2
2022-12-26T07:46:37.465Z,8.2
2022-12-26T07:48:34.968Z,8.2
2022-12-26T07:50:34.123Z,8.3
2022-12-26T07:52:34.150Z,8.3
2022-12-26T07:54:43.757Z,8.2
2022-12-26T07:56:34.149Z,8.3
2022-12-26T07:58:34.181Z,8.4
2022-12-26T08:00:40.882Z,8.4
2022-12-26T08:02:35.569Z,8.4
2022-12-26T08:04:34.229Z,8.4
2022-12-26T08:06:34.982Z,8.5
2022-12-26T08:08:34.142Z,8.6
2022-12-26T08:10:34.712Z,8.6
2022-12-26T08:12:37.246Z,8.7
2022-12-26T08:14:34.127Z,8.8
2022-12-26T08:16:37.131Z,8.7
2022-12-26T08:20:34.142Z,8.6
2022-12-26T08:22:37.122Z,8.7
2022-12-26T08:24:34.167Z,8.8
2022-12-26T08:26:37.603Z,8.8
2022-12-26T08:28:34.155Z,8.9
2022-12-26T08:30:34.274Z,9.2
2022-12-26T08:32:38.223Z,9.2
2022-12-26T08:34:34.167Z,9
2022-12-26T08:36:34.154Z,9.1
2022-12-26T08:38:34.292Z,9.3
2022-12-26T08:40:43.817Z,9.2
2022-12-26T08:42:40.013Z,9.1
2022-12-26T08:44:34.157Z,9.1
2022-12-26T08:46:34.159Z,9.2
2022-12-26T08:48:37.027Z,9.5
2022-12-26T08:50:36.561Z,9.5
2022-12-26T08:54:34.493Z,9.8
2022-12-26T08:56:34.133Z,9.8
2022-12-26T08:58:40.668Z,9.5
2022-12-26T09:00:34.242Z,9.4
2022-12-26T09:02:34.274Z,9.3
2022-12-26T09:04:37.002Z,9.4
2022-12-26T09:06:34.876Z,9.4
2022-12-26T09:08:34.140Z,9.4
2022-12-26T09:10:34.181Z,9.4
2022-12-26T09:14:37.354Z,9.4
2022-12-26T09:16:38.553Z,9.5
2022-12-26T09:18:34.146Z,9.5
2022-12-26T09:22:37.372Z,9.6
2022-12-26T09:24:34.625Z,9.7
2022-12-26T09:26:34.524Z,9.8
2022-12-26T09:28:34.139Z,9.8
2022-12-26T09:30:34.536Z,9.8
2022-12-26T09:32:40.629Z,9.8
2022-12-26T09:36:37.022Z,9.8
2022-12-26T09:38:34.145Z,9.7
2022-12-26T09:40:34.757Z,9.5
2022-12-26T09:42:34.886Z,9.4
2022-12-26T09:44:34.136Z,9.5
2022-12-26T09:46:40.549Z,9.6
2022-12-26T09:48:34.132Z,9.6
2022-12-26T09:50:37.146Z,9.6
2022-12-26T09:52:37.398Z,9.6
2022-12-26T09:54:34.150Z,9.7
2022-12-26T09:57:02.841Z,9.7
2022-12-26T09:58:35.477Z,9.8
2022-12-26T10:00:38.653Z,9.7
2022-12-26T10:02:35.655Z,9.8
2022-12-26T10:04:37.079Z,9.9
2022-12-26T10:06:34.160Z,9.9
2022-12-26T10:08:37.234Z,9.8
2022-12-26T10:10:34.156Z,9.9
2022-12-26T10:12:40.557Z,9.9
2022-12-26T10:14:34.178Z,9.9
2022-12-26T10:16:37.374Z,9.9
2022-12-26T10:18:34.170Z,9.9
2022-12-26T10:20:34.624Z,9.9
2022-12-26T10:24:34.156Z,9.9
2022-12-26T10:26:34.157Z,9.9
2022-12-26T10:28:35.585Z,9.8
2022-12-26T10:30:34.158Z,9.8
2022-12-26T10:32:34.173Z,9.8
2022-12-26T10:34:35.507Z,9.8
2022-12-26T10:36:34.176Z,9.7
2022-12-26T10:38:34.168Z,9.7
2022-12-26T10:40:34.143Z,9.8
2022-12-26T10:42:34.251Z,9.8
2022-12-26T10:44:34.155Z,9.9
2022-12-26T10:46:34.985Z,9.9
2022-12-26T10:48:34.152Z,9.8
2022-12-26T10:50:38.653Z,9.8
2022-12-26T10:52:34.148Z,9.8
2022-12-26T10:54:34.229Z,9.8
2022-12-26T10:56:34.196Z,9.9
2022-12-26T10:58:34.600Z,9.9
2022-12-26T11:00:34.493Z,9.9
2022-12-26T11:02:34.244Z,10
2022-12-26T11:05:10.308Z,9.9
2022-12-26T11:06:34.916Z,9.9
2022-12-26T11:08:39.180Z,9.9
2022-12-26T11:10:34.153Z,9.9
2022-12-26T11:12:40.224Z,9.9
2022-12-26T11:16:34.301Z,9.9
2022-12-26T11:18:34.183Z,9.8
2022-12-26T11:20:34.195Z,9.8
2022-12-26T11:22:37.516Z,9.8
2022-12-26T11:24:40.349Z,9.8
2022-12-26T11:26:34.304Z,9.8
2022-12-26T11:28:37.258Z,9.7
2022-12-26T11:32:34.193Z,9.6
2022-12-26T11:34:34.179Z,9.6
2022-12-26T11:36:34.700Z,9.6
2022-12-26T11:38:37.502Z,9.6
2022-12-26T11:40:34.178Z,9.6
2022-12-26T11:42:34.616Z,9.6
2022-12-26T11:44:37.412Z,9.6
2022-12-26T11:46:34.949Z,9.6
2022-12-26T11:48:34.181Z,9.6
2022-12-26T11:50:40.155Z,9.5
2022-12-26T11:52:36.788Z,9.5
2022-12-26T11:54:34.313Z,9.4
2022-12-26T11:56:34.188Z,9.4
2022-12-26T11:58:34.620Z,9.3
2022-12-26T12:00:37.274Z,9.3
2022-12-26T12:04:34.156Z,9.2
2022-12-26T12:06:34.281Z,9.1
2022-12-26T12:10:40.644Z,9.1
2022-12-26T12:12:34.169Z,9
2022-12-26T12:14:34.307Z,9
2022-12-26T12:18:34.207Z,8.9
2022-12-26T12:22:34.167Z,8.8
2022-12-26T12:24:37.404Z,8.8
2022-12-26T12:26:37.710Z,8.7
2022-12-26T12:28:34.159Z,8.8
2022-12-26T12:30:34.177Z,8.7
2022-12-26T12:32:36.992Z,8.8
2022-12-26T12:34:42.066Z,8.8
2022-12-26T12:36:34.160Z,8.8
2022-12-26T12:38:37.401Z,8.8
2022-12-26T12:40:39.001Z,8.8
2022-12-26T12:42:34.654Z,8.7
2022-12-26T12:44:34.196Z,8.7
2022-12-26T12:46:34.203Z,8.7
2022-12-26T12:48:35.476Z,8.7
2022-12-26T12:50:34.156Z,8.7
2022-12-26T12:54:34.167Z,8.7
2022-12-26T12:56:40.151Z,8.7
2022-12-26T12:58:37.471Z,8.7
2022-12-26T13:02:37.847Z,8.7
2022-12-26T13:04:34.195Z,8.7
2022-12-26T13:06:34.163Z,8.7
2022-12-26T13:08:34.195Z,8.7
2022-12-26T13:10:34.163Z,8.6
2022-12-26T13:12:34.192Z,8.7
2022-12-26T13:14:34.900Z,8.7
2022-12-26T13:16:34.222Z,8.7
2022-12-26T13:18:40.579Z,8.7
2022-12-26T13:20:43.743Z,8.7
2022-12-26T13:24:34.193Z,8.7
2022-12-26T13:26:34.170Z,8.6
2022-12-26T13:28:34.644Z,8.7
2022-12-26T13:34:34.181Z,8.6
2022-12-26T13:36:34.198Z,8.6
2022-12-26T13:38:34.906Z,8.6
2022-12-26T13:40:34.219Z,8.6
2022-12-26T13:42:34.279Z,8.7
2022-12-26T13:44:34.645Z,8.7
2022-12-26T13:46:35.575Z,8.6
2022-12-26T13:50:37.389Z,8.6
2022-12-26T13:52:35.186Z,8.6
2022-12-26T13:54:36.705Z,8.6
2022-12-26T13:56:34.931Z,8.6
2022-12-26T14:00:34.164Z,8.6
2022-12-26T14:03:07.569Z,8.6
2022-12-26T14:04:34.212Z,8.6
2022-12-26T14:06:34.165Z,8.5
2022-12-26T14:10:34.175Z,8.6
2022-12-26T14:12:34.166Z,8.6
2022-12-26T14:14:34.661Z,8.5
2022-12-26T14:16:34.194Z,8.6
2022-12-26T14:20:39.178Z,8.5
2022-12-26T14:22:34.533Z,8.5
2022-12-26T14:24:34.198Z,8.6
2022-12-26T14:26:34.552Z,8.6
2022-12-26T14:28:34.192Z,8.6
2022-12-26T14:30:36.931Z,8.5
2022-12-26T14:32:34.201Z,8.5
2022-12-26T14:34:34.198Z,8.6
2022-12-26T14:36:36.907Z,8.5
2022-12-26T14:38:34.871Z,8.5
2022-12-26T14:40:37.013Z,8.4
2022-12-26T14:42:34.230Z,8.4
2022-12-26T14:44:34.181Z,8.4
2022-12-26T14:46:34.328Z,8.4
2022-12-26T14:48:34.238Z,8.4
2022-12-26T14:52:34.238Z,8.4
2022-12-26T14:54:35.533Z,8.3
2022-12-26T14:56:40.354Z,8.4
2022-12-26T14:58:34.634Z,8.4
2022-12-26T15:00:34.213Z,8.3
2022-12-26T15:02:34.356Z,8.3
2022-12-26T15:04:37.493Z,8.4
2022-12-26T15:06:37.598Z,8.2
2022-12-26T15:08:34.928Z,8.3
2022-12-26T15:10:34.173Z,8.2
2022-12-26T15:12:37.015Z,8.3
2022-12-26T15:14:37.008Z,8.2
2022-12-26T15:16:37.001Z,8.3
2022-12-26T15:18:37.790Z,8.2
2022-12-26T15:20:34.638Z,8.2
2022-12-26T15:22:35.535Z,8.2
2022-12-26T15:25:17.383Z,8.2
2022-12-26T15:26:34.181Z,8.2
2022-12-26T15:28:34.251Z,8.1
2022-12-26T15:30:34.639Z,8.1
2022-12-26T15:32:39.921Z,8.2
2022-12-26T15:34:34.190Z,8.2
2022-12-26T15:36:34.180Z,8.2
2022-12-26T15:38:35.770Z,8.1
2022-12-26T15:42:34.185Z,8.1
2022-12-26T15:44:34.211Z,8.1
2022-12-26T15:46:34.223Z,8.1
2022-12-26T15:48:34.295Z,8
2022-12-26T15:50:34.199Z,8
2022-12-26T15:52:34.247Z,8.1
2022-12-26T15:54:37.423Z,8.1
2022-12-26T15:56:34.941Z,8.1
2022-12-26T15:58:34.956Z,8.1
2022-12-26T16:00:35.508Z,8.1
2022-12-26T16:02:34.415Z,8
2022-12-26T16:04:37.585Z,8.1
2022-12-26T16:06:35.567Z,8
2022-12-26T16:08:34.209Z,8
2022-12-26T16:10:37.249Z,8.1
2022-12-26T16:12:34.176Z,8.1
2022-12-26T16:14:34.187Z,8.1
2022-12-26T16:18:34.221Z,7.9
2022-12-26T16:20:37.191Z,8
2022-12-26T16:22:34.175Z,8
2022-12-26T16:24:37.447Z,8
2022-12-26T16:26:34.181Z,8
2022-12-26T16:28:34.173Z,7.9
2022-12-26T16:30:34.193Z,8
2022-12-26T16:32:34.201Z,7.9
2022-12-26T16:34:34.183Z,8
2022-12-26T16:36:34.664Z,7.9
2022-12-26T16:38:34.629Z,8
2022-12-26T16:40:40.830Z,8.1
2022-12-26T16:42:34.213Z,8
2022-12-26T16:44:34.643Z,7.9
2022-12-26T16:47:59.018Z,7.9
2022-12-26T16:50:00.034Z,7.9
2022-12-26T16:52:01.779Z,7.9
2022-12-26T16:54:02.108Z,7.9
2022-12-26T16:55:58.957Z,7.8
2022-12-26T16:57:59.494Z,7.8
2022-12-26T16:59:58.680Z,7.9
2022-12-26T17:01:59.029Z,7.9
2022-12-26T17:03:57.932Z,7.8
2022-12-26T17:05:57.316Z,7.8
2022-12-26T17:07:59.923Z,7.9
2022-12-26T17:09:57.601Z,8
2022-12-26T17:11:58.832Z,8
2022-12-26T17:13:55.862Z,8
2022-12-26T17:15:58.104Z,7.9
2022-12-26T17:17:56.248Z,8
2022-12-26T17:20:01.361Z,7.9
2022-12-26T17:21:58.799Z,7.9
2022-12-26T17:25:59.523Z,7.8
2022-12-26T17:28:00.513Z,7.9
2022-12-26T17:29:57.329Z,7.9
2022-12-26T17:31:59.416Z,7.9
2022-12-26T17:33:59.392Z,7.8
2022-12-26T17:37:59.453Z,7.8
2022-12-26T17:40:02.513Z,7.8
2022-12-26T17:41:58.140Z,7.8
2022-12-26T17:43:58.226Z,7.8
2022-12-26T17:45:58.239Z,7.8
2022-12-26T17:47:58.255Z,7.8
2022-12-26T17:49:57.351Z,7.8
2022-12-26T17:52:01.542Z,7.8
2022-12-26T17:54:00.423Z,7.8
2022-12-26T17:55:55.835Z,7.9
2022-12-26T17:57:59.477Z,7.9
2022-12-26T17:59:56.463Z,7.8
2022-12-26T18:01:58.991Z,7.8
2022-12-26T18:04:00.425Z,7.9
2022-12-26T18:05:57.254Z,7.9
2022-12-26T18:07:59.202Z,7.9
2022-12-26T18:09:57.290Z,7.9
2022-12-26T18:11:55.865Z,7.9
2022-12-26T18:13:59.456Z,7.9
2022-12-26T18:15:59.587Z,7.9
2022-12-26T18:17:58.643Z,7.9
2022-12-26T18:19:59.573Z,7.9
2022-12-26T18:21:55.870Z,7.8
2022-12-26T18:23:57.803Z,7.9
2022-12-26T18:25:57.612Z,7.8
2022-12-26T18:28:00.939Z,8
2022-12-26T18:29:58.244Z,7.9
2022-12-26T18:31:57.295Z,7.9
2022-12-26T18:33:59.471Z,7.8
2022-12-26T18:36:03.096Z,7.8
2022-12-26T18:37:55.896Z,7.9
2022-12-26T18:41:58.512Z,8
2022-12-26T18:43:55.976Z,7.9
2022-12-26T18:45:57.294Z,7.9
2022-12-26T18:47:58.916Z,7.9
2022-12-26T18:49:58.203Z,7.9
2022-12-26T18:51:59.209Z,7.9
2022-12-26T18:53:59.059Z,7.8
2022-12-26T18:55:59.346Z,7.8
2022-12-26T18:57:59.553Z,7.8
2022-12-26T18:59:57.637Z,7.8
2022-12-26T19:01:59.028Z,7.9
2022-12-26T19:03:58.123Z,7.8
2022-12-26T19:05:57.208Z,7.8
2022-12-26T19:07:59.624Z,7.8
2022-12-26T19:09:56.955Z,7.9
2022-12-26T19:11:59.630Z,7.8
2022-12-26T19:13:56.918Z,7.8
2022-12-26T19:15:57.174Z,7.9
2022-12-26T19:17:57.713Z,7.9
2022-12-26T19:19:59.933Z,7.9
2022-12-26T19:21:59.510Z,7.9
2022-12-26T19:23:58.602Z,8
2022-12-26T19:25:55.890Z,7.9
2022-12-26T19:27:58.265Z,8
2022-12-26T19:29:55.521Z,8.1
2022-12-26T19:31:57.522Z,8
2022-12-26T19:33:59.748Z,8.1
2022-12-26T19:35:58.536Z,8.1
2022-12-26T19:37:59.033Z,8.2
2022-12-26T19:39:58.178Z,8.2
2022-12-26T19:41:59.470Z,8.2
2022-12-26T19:44:01.860Z,8.1
2022-12-26T19:45:55.953Z,8.1
2022-12-26T19:48:00.543Z,8.2
2022-12-26T19:49:58.250Z,8.2
2022-12-26T19:52:01.843Z,8.3
2022-12-26T19:53:59.033Z,8.2
2022-12-26T19:55:57.279Z,8.2
2022-12-26T19:58:00.892Z,8.2
2022-12-26T20:00:00.942Z,8.1
2022-12-26T20:01:59.640Z,8.1
2022-12-26T20:03:59.101Z,8.2
2022-12-26T20:06:01.258Z,8.1
2022-12-26T20:07:57.441Z,8.2
2022-12-26T20:09:59.599Z,8
2022-12-26T20:12:01.842Z,7.8
2022-12-26T20:13:59.967Z,7.8
2022-12-26T20:15:56.626Z,7.7
2022-12-26T20:17:59.648Z,7.6
2022-12-26T20:19:59.138Z,7.6
2022-12-26T20:21:58.253Z,7.5
2022-12-26T20:23:57.684Z,7.5
2022-12-26T20:28:01.703Z,7.2
2022-12-26T20:29:57.623Z,7.2
2022-12-26T20:31:57.537Z,7.1
2022-12-26T20:33:57.334Z,7
2022-12-26T20:35:56.343Z,7
2022-12-26T20:37:57.743Z,6.9
2022-12-26T20:40:00.438Z,6.9
2022-12-26T20:41:59.104Z,6.8
2022-12-26T20:44:00.991Z,6.8
2022-12-26T20:46:04.283Z,6.7
2022-12-26T20:47:58.590Z,6.7
2022-12-26T20:49:55.888Z,6.7
2022-12-26T20:51:59.098Z,6.6
2022-12-26T20:53:57.277Z,6.6
2022-12-26T20:55:57.782Z,6.5
2022-12-26T20:57:58.977Z,6.5
2022-12-26T20:59:58.118Z,6.5
2022-12-26T21:01:57.911Z,6.5
2022-12-26T21:03:57.485Z,6.5
2022-12-26T21:05:59.892Z,6.5
2022-12-26T21:07:57.737Z,6.4
2022-12-26T21:09:57.702Z,6.4
2022-12-26T21:11:59.110Z,6.4
2022-12-26T21:13:59.524Z,6.4
2022-12-26T21:16:02.099Z,6.4
2022-12-26T21:19:57.984Z,6.4
2022-12-26T21:21:59.504Z,6.4
2022-12-26T21:23:56.312Z,6.4
2022-12-26T21:26:01.024Z,6.4
2022-12-26T21:27:59.672Z,6.4
2022-12-26T21:29:59.736Z,6.4
2022-12-26T21:31:57.506Z,6.4
2022-12-26T21:34:00.037Z,6.4
2022-12-26T21:35:57.965Z,6.4
2022-12-26T21:37:56.328Z,6.4
2022-12-26T21:39:59.585Z,6.4
2022-12-26T21:41:55.667Z,6.4
2022-12-26T21:44:00.607Z,6.5
2022-12-26T21:46:01.289Z,6.4
2022-12-26T21:47:56.423Z,6.3
2022-12-26T21:49:59.669Z,6.4
2022-12-26T21:51:58.374Z,6.4
2022-12-26T21:53:58.657Z,6.4
2022-12-26T21:55:59.288Z,6.4
2022-12-26T21:57:59.021Z,6.4
2022-12-26T22:00:01.787Z,6.4
2022-12-26T22:01:57.849Z,6.4
2022-12-26T22:03:58.829Z,6.4
2022-12-26T22:06:02.193Z,6.4
2022-12-26T22:07:55.989Z,6.4
2022-12-26T22:09:57.373Z,6.4
2022-12-26T22:11:59.085Z,6.4
2022-12-26T22:16:00.519Z,6.4
2022-12-26T22:17:59.626Z,6.3
2022-12-26T22:19:58.605Z,6.3
2022-12-26T22:21:59.617Z,6.3
2022-12-26T22:23:59.717Z,6.3
2022-12-26T22:26:00.881Z,6.3
2022-12-26T22:27:59.372Z,6.3
2022-12-26T22:29:58.023Z,6.3
2022-12-26T22:32:00.181Z,6.3
2022-12-26T22:33:56.057Z,6.3
2022-12-26T22:35:56.251Z,6.3
2022-12-26T22:38:00.598Z,6.3
2022-12-26T22:39:57.453Z,6.4
2022-12-26T22:42:02.224Z,6.3
2022-12-26T22:44:00.655Z,6.3
2022-12-26T22:45:57.970Z,6.3
2022-12-26T22:48:02.814Z,6.3
2022-12-26T22:50:02.027Z,6.3
2022-12-26T22:51:57.311Z,6.3
2022-12-26T22:53:57.794Z,6.3
2022-12-26T22:56:00.438Z,6.3
2022-12-26T22:58:00.589Z,6.3
2022-12-26T23:00:09.018Z,6.3
2022-12-26T23:01:56.030Z,6.2
2022-12-26T23:03:58.483Z,6.2
2022-12-26T23:05:59.642Z,6.2
2022-12-26T23:07:59.587Z,6.2
2022-12-26T23:10:01.918Z,6.1
2022-12-26T23:11:58.845Z,6.1
2022-12-26T23:14:00.106Z,6.1
2022-12-26T23:15:59.657Z,6
2022-12-26T23:17:59.589Z,6
2022-12-26T23:19:58.757Z,6
2022-12-26T23:21:58.263Z,6
2022-12-26T23:25:59.411Z,5.8
2022-12-26T23:30:00.813Z,5.8
2022-12-26T23:31:58.116Z,5.8
2022-12-26T23:33:59.600Z,5.8
2022-12-26T23:36:00.056Z,5.8
2022-12-26T23:38:01.787Z,5.8
2022-12-26T23:39:57.368Z,5.8
2022-12-26T23:41:58.659Z,5.8
2022-12-26T23:43:58.644Z,5.8
2022-12-26T23:46:00.144Z,5.8
2022-12-26T23:47:55.965Z,5.8
2022-12-26T23:50:01.039Z,5.8
2022-12-26T23:51:57.670Z,5.7
2022-12-26T23:54:00.101Z,5.7
2022-12-26T23:56:01.348Z,5.7
2022-12-26T23:57:59.636Z,5.7
2022-12-26T23:59:57.999Z,5.7
